Fernando Namora — CSKF — position and weather

sailwx.info

Track history (hours):
 
Tides and Currents Weather Stations Pressure Air Temp Water Temp Dewpoint Dewpoint Depression Visibility Wind Speed Wind Dir Waves Ship Positions

Fernando Namora

Last reported at 2018-Jun-22 18:57 UTC. Time now 2018-Jun-25 01:45 UTC.
Position N 38°39' W 009°05'.

Length 49 m; draft 1.5 m.

Type: Ship. MMSI: 263701380.

Date/timePositionNaut miles runAvg speedWind from/ knotsBaromVisibWave heightAir tempDewpointWater temp
2018-Jun-22 18:57N 38°39' W 009°05'4 9.0
2018-Jun-22 18:30N 38°42' W 009°08'4 8.3
2018-Jun-22 18:01N 38°39' W 009°05'4 8.1
2018-Jun-22 17:31N 38°42' W 009°08'3 5.4
2018-Jun-22 17:01N 38°40' W 009°07'0 0.4
2018-Jun-22 16:30N 38°40' W 009°06'3 5.9
2018-Jun-22 16:00N 38°42' W 009°08'4 8.2
2018-Jun-22 15:30N 38°39' W 009°05'3 6.4
2018-Jun-22 15:00N 38°41' W 009°08'3 5.2
2018-Jun-22 14:30N 38°39' W 009°06'1 1.4
2018-Jun-22 14:00N 38°39' W 009°05'0 0.0
2018-Jun-22 13:30N 38°39' W 009°05'0 0.0
2018-Jun-22 13:00N 38°39' W 009°05'0 0.0
2018-Jun-22 12:30N 38°39' W 009°05'0 0.0
2018-Jun-22 12:00N 38°39' W 009°05'0 0.0
2018-Jun-22 11:30N 38°39' W 009°05'0 0.0
2018-Jun-22 11:00N 38°39' W 009°05'0 0.0
2018-Jun-22 10:30N 38°39' W 009°05'4 7.2
2018-Jun-22 10:01N 38°42' W 009°08'3 5.8
2018-Jun-22 09:30N 38°39' W 009°06'3 5.0
2018-Jun-22 09:01N 38°41' W 009°08'3 5.1
2018-Jun-22 08:30N 38°39' W 009°06'1 3.0
2018-Jun-22 08:00N 38°40' W 009°07'2 3.0
2018-Jun-22 07:30N 38°39' W 009°06'4 7.1
2018-Jun-22 07:00N 38°42' W 009°08'4 8.3
2018-Jun-22 06:30N 38°39' W 009°05'4 8.4
2018-Jun-22 06:00N 38°42' W 009°08'4 8.4
2018-Jun-22 05:30N 38°39' W 009°05'4 7.5
2018-Jun-22 05:00N 38°42' W 009°08'4 0.6
2018-Jun-21 22:53N 38°39' W 009°05'411.1
2018-Jun-21 22:30N 38°42' W 009°08'4 8.3
2018-Jun-21 22:00N 38°39' W 009°05'4 8.4
2018-Jun-21 21:31N 38°42' W 009°08'4 8.3
2018-Jun-21 21:00N 38°39' W 009°05'3 6.5
2018-Jun-21 20:31N 38°41' W 009°08'3 6.5
2018-Jun-21 20:00N 38°39' W 009°05'0 0.0
2018-Jun-21 19:31N 38°39' W 009°05'4 8.3
2018-Jun-21 19:00N 38°42' W 009°08'4 8.4
2018-Jun-21 18:30N 38°39' W 009°05'4 8.4
2018-Jun-21 18:00N 38°42' W 009°08'4 8.3
2018-Jun-21 17:31N 38°39' W 009°05'4 7.9
2018-Jun-21 17:00N 38°42' W 009°08'2 4.8
2018-Jun-21 16:31N 38°40' W 009°07'1 2.3
2018-Jun-21 16:01N 38°41' W 009°07'3 5.5
2018-Jun-21 15:30N 38°39' W 009°05'0 0.0
2018-Jun-21 12:40N 38°39' W 009°05'0 0.0
2018-Jun-21 12:30N 38°39' W 009°05'0 0.0
2018-Jun-21 12:00N 38°39' W 009°05'0 0.0
2018-Jun-21 11:30N 38°39' W 009°05'0 0.0
2018-Jun-21 11:00N 38°39' W 009°05'0 0.0
2018-Jun-21 10:30N 38°39' W 009°05'3 6.6
2018-Jun-21 10:00N 38°41' W 009°08'3 6.4
2018-Jun-21 09:30N 38°39' W 009°05'0 0.7
2018-Jun-21 09:00N 38°39' W 009°05'2 4.3
2018-Jun-21 08:31N 38°40' W 009°07'1 2.1
2018-Jun-21 08:00N 38°40' W 009°06'3 6.4
2018-Jun-21 07:30N 38°42' W 009°08'4 8.3
2018-Jun-21 07:00N 38°39' W 009°05'4 7.8
2018-Jun-21 06:31N 38°42' W 009°08'4 7.8
2018-Jun-21 06:00N 38°39' W 009°05'0 0.0
2018-Jun-20 18:55N 38°39' W 009°05'410.0
2018-Jun-20 18:30N 38°42' W 009°08'4 8.4
2018-Jun-20 18:00N 38°39' W 009°05'4 7.5
2018-Jun-20 17:31N 38°42' W 009°08'2 4.6
2018-Jun-20 17:01N 38°40' W 009°07'1 1.1
2018-Jun-20 16:30N 38°40' W 009°06'3 6.3
2018-Jun-20 16:00N 38°42' W 009°08'4 8.3
2018-Jun-20 15:30N 38°39' W 009°05'3 6.5
2018-Jun-20 15:00N 38°41' W 009°08'2 4.9
2018-Jun-20 14:30N 38°39' W 009°06'1 1.7
2018-Jun-20 14:00N 38°39' W 009°05'0 0.0
2018-Jun-20 13:30N 38°39' W 009°05'0 0.0
2018-Jun-20 13:00N 38°39' W 009°05'0 0.0
2018-Jun-20 12:30N 38°39' W 009°05'0 0.0
2018-Jun-20 12:00N 38°39' W 009°05'0 0.0
2018-Jun-20 11:30N 38°39' W 009°05'0 0.0
2018-Jun-20 11:00N 38°39' W 009°05'0 0.0
2018-Jun-20 10:30N 38°39' W 009°05'0 0.0
2018-Jun-20 10:00N 38°39' W 009°05'0 0.0
2018-Jun-20 09:30N 38°39' W 009°05'4 7.0
2018-Jun-20 09:00N 38°41' W 009°08'3 5.8
2018-Jun-20 08:30N 38°39' W 009°06'1 2.4
2018-Jun-20 08:00N 38°40' W 009°07'0 0.9
2018-Jun-20 07:30N 38°40' W 009°06'3 5.9
2018-Jun-20 07:00N 38°42' W 009°08'4 8.3
2018-Jun-20 06:30N 38°39' W 009°05'4 8.3
2018-Jun-20 06:00N 38°42' W 009°08'4 8.4
2018-Jun-20 05:30N 38°39' W 009°05'4 7.2
2018-Jun-20 05:01N 38°42' W 009°08'4 7.2
2018-Jun-20 04:30N 38°39' W 009°05'0 0.0
2018-Jun-19 22:55N 38°39' W 009°05'410.2
2018-Jun-19 22:30N 38°42' W 009°08'4 8.3
2018-Jun-19 22:00N 38°39' W 009°05'4 8.3
2018-Jun-19 21:31N 38°42' W 009°08'4 8.3
2018-Jun-19 21:01N 38°39' W 009°05'3 6.7
2018-Jun-19 20:30N 38°41' W 009°08'3 6.7
2018-Jun-19 20:00N 38°39' W 009°05'0 0.0
2018-Jun-19 19:30N 38°39' W 009°05'4 8.3
2018-Jun-19 19:00N 38°42' W 009°08'4 8.4
2018-Jun-19 18:30N 38°39' W 009°05'4 8.4
2018-Jun-19 18:00N 38°42' W 009°08'4 8.3
2018-Jun-19 17:30N 38°39' W 009°05'4 7.5
2018-Jun-19 17:00N 38°42' W 009°08'2 4.3
2018-Jun-19 16:31N 38°40' W 009°07'0 0.1
2018-Jun-19 16:00N 38°40' W 009°07'2 4.1
2018-Jun-19 15:29N 38°39' W 009°05'0 0.0
2018-Jun-19 15:00N 38°39' W 009°05'0 0.0
2018-Jun-19 14:31N 38°39' W 009°05'0 0.0
2018-Jun-19 14:00N 38°39' W 009°05'0 0.0
2018-Jun-19 13:31N 38°39' W 009°05'0 0.0
2018-Jun-19 13:00N 38°39' W 009°05'0 0.0
2018-Jun-19 12:30N 38°39' W 009°05'0 0.0
2018-Jun-19 12:00N 38°39' W 009°05'0 0.0
2018-Jun-19 11:31N 38°39' W 009°05'0 0.0
2018-Jun-19 11:01N 38°39' W 009°05'0 0.0
2018-Jun-19 10:30N 38°39' W 009°05'0 0.0
2018-Jun-19 10:01N 38°39' W 009°05'0 0.2
2018-Jun-19 09:31N 38°39' W 009°05'3 6.3
2018-Jun-19 09:00N 38°41' W 009°08'3 5.4
2018-Jun-19 08:30N 38°39' W 009°06'1 1.9
2018-Jun-19 08:00N 38°40' W 009°07'1 1.1
2018-Jun-19 07:30N 38°40' W 009°06'3 6.5
2018-Jun-19 07:00N 38°42' W 009°08'4 8.3
2018-Jun-19 06:30N 38°39' W 009°05'4 8.3
2018-Jun-19 06:00N 38°42' W 009°08'4 8.3
2018-Jun-19 05:30N 38°39' W 009°05'3 6.9
2018-Jun-19 05:01N 38°42' W 009°08'3 6.9
2018-Jun-19 04:30N 38°39' W 009°05'0 0.0
2018-Jun-19 04:00N 38°39' W 009°05'0 0.0
2018-Jun-19 03:30N 38°39' W 009°05'0 0.0
2018-Jun-19 03:00N 38°39' W 009°05'0 0.0
2018-Jun-19 02:30N 38°39' W 009°05'0 0.0
2018-Jun-19 02:00N 38°39' W 009°05'0 0.0
2018-Jun-19 01:30N 38°39' W 009°05'0 0.0
2018-Jun-19 01:00N 38°39' W 009°05'0 0.0
2018-Jun-19 00:30N 38°39' W 009°05'0 0.0
2018-Jun-19 00:00N 38°39' W 009°05'0 0.0
2018-Jun-18 23:30N 38°39' W 009°05'0 0.0
2018-Jun-18 23:00N 38°39' W 009°05'4 8.4
2018-Jun-18 22:30N 38°42' W 009°08'4 8.3
2018-Jun-18 22:00N 38°39' W 009°05'4 8.3
2018-Jun-18 21:30N 38°42' W 009°08'4 8.4
2018-Jun-18 21:00N 38°39' W 009°05'3 6.7
2018-Jun-18 20:30N 38°41' W 009°08'3 6.6
2018-Jun-18 20:00N 38°39' W 009°05'0 0.0
2018-Jun-18 19:30N 38°39' W 009°05'4 8.2
2018-Jun-18 19:00N 38°42' W 009°08'4 8.4
2018-Jun-18 18:30N 38°39' W 009°05'4 8.4
2018-Jun-18 18:00N 38°42' W 009°08'4 8.3
2018-Jun-18 17:30N 38°39' W 009°05'4 7.2
2018-Jun-18 17:00N 38°42' W 009°08'2 3.9
2018-Jun-18 16:31N 38°40' W 009°07'1 1.2
2018-Jun-18 16:01N 38°41' W 009°07'2 4.8
2018-Jun-18 15:30N 38°39' W 009°05'0 0.0
2018-Jun-18 15:00N 38°39' W 009°05'0 0.0
2018-Jun-18 14:29N 38°39' W 009°05'0 0.0
2018-Jun-18 14:00N 38°39' W 009°05'0 0.0
2018-Jun-18 13:30N 38°39' W 009°05'0 0.0
2018-Jun-18 13:00N 38°39' W 009°05'0 0.0
2018-Jun-18 12:30N 38°39' W 009°05'0 0.0
2018-Jun-18 12:00N 38°39' W 009°05'0 0.0
2018-Jun-18 11:30N 38°39' W 009°05'0 0.0
2018-Jun-18 11:00N 38°39' W 009°05'0 0.0
2018-Jun-18 10:30N 38°39' W 009°05'0 0.0
2018-Jun-18 10:00N 38°39' W 009°05'0 0.0
2018-Jun-18 09:30N 38°39' W 009°05'0 0.0
2018-Jun-18 09:00N 38°39' W 009°05'0 0.2
2018-Jun-18 08:30N 38°39' W 009°05'3 6.4
2018-Jun-18 08:00N 38°41' W 009°08'3 6.5
2018-Jun-18 07:30N 38°39' W 009°05'4 8.3
2018-Jun-18 07:01N 38°42' W 009°08'4 8.2
2018-Jun-18 06:30N 38°39' W 009°05'3 6.6
2018-Jun-18 06:01N 38°41' W 009°08'3 6.3
2018-Jun-18 05:30N 38°39' W 009°05'0 0.0
2018-Jun-17 10:21N 38°39' W 009°05'3 9.6
2018-Jun-17 10:01N 38°41' W 009°08'3 5.4
2018-Jun-17 09:31N 38°39' W 009°06'3 5.8
2018-Jun-17 09:01N 38°42' W 009°08'3 6.2
2018-Jun-17 08:30N 38°39' W 009°05'3 6.0
2018-Jun-17 08:01N 38°41' W 009°08'3 5.1
2018-Jun-17 07:31N 38°39' W 009°06'3 5.2
2018-Jun-17 07:00N 38°41' W 009°08'3 5.2
2018-Jun-17 06:30N 38°39' W 009°06'0 0.6
2018-Jun-17 06:00N 38°39' W 009°05'2 3.0
2018-Jun-17 05:31N 38°40' W 009°07'1 1.8
2018-Jun-17 05:00N 38°40' W 009°06'2 3.2
2018-Jun-17 04:31N 38°41' W 009°08'3 5.4
2018-Jun-17 04:00N 38°39' W 009°05'0 0.0
2018-Jun-17 03:30N 38°39' W 009°05'0 0.0
2018-Jun-17 03:00N 38°39' W 009°05'0 0.0
2018-Jun-17 02:30N 38°39' W 009°05'0 0.0
2018-Jun-17 02:00N 38°39' W 009°05'0 0.0
2018-Jun-17 01:30N 38°39' W 009°05'4 8.4
2018-Jun-17 01:00N 38°42' W 009°08'4 8.3
2018-Jun-17 00:30N 38°39' W 009°05'4 8.3
2018-Jun-17 00:00N 38°42' W 009°08'4 8.3
2018-Jun-16 23:30N 38°39' W 009°05'4 8.3
2018-Jun-16 23:00N 38°42' W 009°08'4 8.4
2018-Jun-16 22:30N 38°39' W 009°05'3 6.3
2018-Jun-16 22:00N 38°41' W 009°08'2 4.5
2018-Jun-16 21:31N 38°39' W 009°06'2 4.5
2018-Jun-16 21:00N 38°41' W 009°08'2 4.5
2018-Jun-16 20:30N 38°39' W 009°06'3 5.1
2018-Jun-16 20:00N 38°41' W 009°08'3 5.2
2018-Jun-16 19:31N 38°39' W 009°06'1 1.9
2018-Jun-16 19:00N 38°39' W 009°05'3 6.6
2018-Jun-16 18:30N 38°41' W 009°08'2 4.3
2018-Jun-16 18:01N 38°40' W 009°06'2 4.5
2018-Jun-16 17:31N 38°42' W 009°08'2 4.6
2018-Jun-16 17:00N 38°40' W 009°06'2 4.5
2018-Jun-16 16:30N 38°41' W 009°08'2 4.8
2018-Jun-16 16:00N 38°39' W 009°06'2 4.7
2018-Jun-16 15:30N 38°41' W 009°08'3 5.2
2018-Jun-16 15:01N 38°39' W 009°06'3 5.4
2018-Jun-16 14:30N 38°41' W 009°08'3 5.2
2018-Jun-16 14:01N 38°39' W 009°06'1 1.6
2018-Jun-16 13:30N 38°39' W 009°05'0 0.0
2018-Jun-16 13:00N 38°39' W 009°05'0 0.0
2018-Jun-16 12:30N 38°39' W 009°05'3 7.0
2018-Jun-16 12:00N 38°42' W 009°08'3 5.9
2018-Jun-16 11:31N 38°39' W 009°06'3 5.2
2018-Jun-16 11:00N 38°41' W 009°08'3 5.4
2018-Jun-16 10:30N 38°39' W 009°05'3 5.8
2018-Jun-16 10:01N 38°42' W 009°08'3 6.0
2018-Jun-16 09:30N 38°39' W 009°05'3 6.0
2018-Jun-16 09:01N 38°41' W 009°08'3 5.6
2018-Jun-16 08:30N 38°39' W 009°06'3 5.5
2018-Jun-16 08:00N 38°41' W 009°08'3 5.2
2018-Jun-16 07:31N 38°39' W 009°06'3 5.4
2018-Jun-16 07:00N 38°42' W 009°08'3 5.3
2018-Jun-16 06:30N 38°39' W 009°06'0 0.2
2018-Jun-16 06:01N 38°39' W 009°06'1 1.6
2018-Jun-16 05:30N 38°40' W 009°07'1 1.5
2018-Jun-16 05:00N 38°39' W 009°06'2 4.8
2018-Jun-16 04:30N 38°41' W 009°08'3 6.1
2018-Jun-16 03:59N 38°39' W 009°05'0 0.0
2018-Jun-16 03:30N 38°39' W 009°05'0 0.0
2018-Jun-16 03:01N 38°39' W 009°05'0 0.0
2018-Jun-16 02:31N 38°39' W 009°05'0 0.0
2018-Jun-16 02:00N 38°39' W 009°05'0 0.0
2018-Jun-16 01:30N 38°39' W 009°05'4 8.5
2018-Jun-16 01:00N 38°42' W 009°08'4 8.4
2018-Jun-16 00:31N 38°39' W 009°05'4 8.3
2018-Jun-16 00:01N 38°42' W 009°08'4 8.3
2018-Jun-15 23:31N 38°39' W 009°05'4 8.3
2018-Jun-15 23:00N 38°42' W 009°08'4 8.3
2018-Jun-15 22:30N 38°39' W 009°05'3 5.9
2018-Jun-15 22:00N 38°41' W 009°08'2 4.0
2018-Jun-15 21:31N 38°39' W 009°06'2 4.6
2018-Jun-15 21:01N 38°41' W 009°08'3 4.9
2018-Jun-15 20:30N 38°39' W 009°06'1 1.7
2018-Jun-15 20:01N 38°39' W 009°05'0 0.0
2018-Jun-15 19:31N 38°39' W 009°05'4 8.2
2018-Jun-15 19:00N 38°42' W 009°08'4 8.4
2018-Jun-15 18:30N 38°39' W 009°05'4 8.2
2018-Jun-15 18:01N 38°42' W 009°08'2 4.9
2018-Jun-15 17:30N 38°40' W 009°07'1 1.4
2018-Jun-15 17:01N 38°40' W 009°06'3 6.1
2018-Jun-15 16:30N 38°42' W 009°08'4 8.3
2018-Jun-15 16:00N 38°39' W 009°05'0 0.0
2018-Jun-15 15:30N 38°39' W 009°05'0 0.3
2018-Jun-15 15:00N 38°39' W 009°05'0 0.0
2018-Jun-13 17:05N 38°39' W 009°05'0 0.0
2018-Jun-13 17:01N 38°39' W 009°05'3 6.7
2018-Jun-13 16:31N 38°42' W 009°08'3 5.7
2018-Jun-13 16:01N 38°39' W 009°06'3 5.2
2018-Jun-13 15:30N 38°41' W 009°08'2 4.6
2018-Jun-13 15:00N 38°40' W 009°06'2 4.6
2018-Jun-13 14:30N 38°41' W 009°08'2 4.4
2018-Jun-13 14:00N 38°40' W 009°06'1 2.2
2018-Jun-13 13:30N 38°39' W 009°05'0 0.0
2018-Jun-13 13:00N 38°39' W 009°05'0 0.0
2018-Jun-13 12:30N 38°39' W 009°05'3 6.5
2018-Jun-13 12:01N 38°41' W 009°08'3 5.4
2018-Jun-13 11:31N 38°39' W 009°06'3 5.0
2018-Jun-13 11:01N 38°41' W 009°08'3 5.3
2018-Jun-13 10:30N 38°39' W 009°05'1 1.0
2018-Jun-13 10:00N 38°39' W 009°05'0 0.0
2018-Jun-13 09:30N 38°39' W 009°05'0 0.0
2018-Jun-13 09:00N 38°39' W 009°05'0 0.1
2018-Jun-13 08:30N 38°39' W 009°05'0 0.0
2018-Jun-13 08:00N 38°39' W 009°05'0 0.0
2018-Jun-13 07:30N 38°39' W 009°05'0 0.0
2018-Jun-13 07:00N 38°39' W 009°05'0 0.7
2018-Jun-13 06:30N 38°39' W 009°05'2 4.2
2018-Jun-13 06:01N 38°40' W 009°07'1 2.8
2018-Jun-13 05:31N 38°40' W 009°06'3 5.6
2018-Jun-13 05:01N 38°42' W 009°08'4 7.4
2018-Jun-13 04:31N 38°39' W 009°05'0 0.0
2018-Jun-13 04:01N 38°39' W 009°05'0 0.0
2018-Jun-13 03:31N 38°39' W 009°05'0 1.0
2018-Jun-13 03:00N 38°39' W 009°05'4 7.7
2018-Jun-13 02:30N 38°42' W 009°08'0 0.0
2018-Jun-13 02:00N 38°42' W 009°08'0 0.0
2018-Jun-13 01:31N 38°42' W 009°08'2 5.0
2018-Jun-13 01:01N 38°40' W 009°07'2 4.9
2018-Jun-13 00:30N 38°42' W 009°08'0 0.0
2018-Jun-13 00:00N 38°42' W 009°08'0 0.3
2018-Jun-12 23:30N 38°42' W 009°08'4 7.9
2018-Jun-12 23:00N 38°39' W 009°05'4 8.4
2018-Jun-12 22:30N 38°42' W 009°08'4 8.3
2018-Jun-12 22:00N 38°39' W 009°05'4 8.3
2018-Jun-12 21:30N 38°42' W 009°08'4 8.4
2018-Jun-12 21:00N 38°39' W 009°05'3 6.8
2018-Jun-12 20:30N 38°41' W 009°08'3 6.8
2018-Jun-12 20:00N 38°39' W 009°05'4 8.3
2018-Jun-12 19:31N 38°42' W 009°08'4 8.3
2018-Jun-12 19:00N 38°39' W 009°05'  
Track history (hours):
 
Tides and Currents Weather Stations Pressure Air Temp Water Temp Dewpoint Dewpoint Depression Visibility Wind Speed Wind Dir Waves Ship Positions

Fernando Namora

Last reported at 2018-Jun-22 18:57 UTC. Time now 2018-Jun-25 01:45 UTC.
Position N 38°39' W 009°05'.

Length 49 m; draft 1.5 m.

Type: Ship. MMSI: 263701380.

Date/timePositionNaut miles runAvg speedWind from/ knotsBaromVisibWave heightAir tempDewpointWater temp
2018-Jun-22 18:57N 38°39' W 009°05'4 9.0
2018-Jun-22 18:30N 38°42' W 009°08'4 8.3
2018-Jun-22 18:01N 38°39' W 009°05'4 8.1
2018-Jun-22 17:31N 38°42' W 009°08'3 5.4
2018-Jun-22 17:01N 38°40' W 009°07'0 0.4
2018-Jun-22 16:30N 38°40' W 009°06'3 5.9
2018-Jun-22 16:00N 38°42' W 009°08'4 8.2
2018-Jun-22 15:30N 38°39' W 009°05'3 6.4
2018-Jun-22 15:00N 38°41' W 009°08'3 5.2
2018-Jun-22 14:30N 38°39' W 009°06'1 1.4
2018-Jun-22 14:00N 38°39' W 009°05'0 0.0
2018-Jun-22 13:30N 38°39' W 009°05'0 0.0
2018-Jun-22 13:00N 38°39' W 009°05'0 0.0
2018-Jun-22 12:30N 38°39' W 009°05'0 0.0
2018-Jun-22 12:00N 38°39' W 009°05'0 0.0
2018-Jun-22 11:30N 38°39' W 009°05'0 0.0
2018-Jun-22 11:00N 38°39' W 009°05'0 0.0
2018-Jun-22 10:30N 38°39' W 009°05'4 7.2
2018-Jun-22 10:01N 38°42' W 009°08'3 5.8
2018-Jun-22 09:30N 38°39' W 009°06'3 5.0
2018-Jun-22 09:01N 38°41' W 009°08'3 5.1
2018-Jun-22 08:30N 38°39' W 009°06'1 3.0
2018-Jun-22 08:00N 38°40' W 009°07'2 3.0
2018-Jun-22 07:30N 38°39' W 009°06'4 7.1
2018-Jun-22 07:00N 38°42' W 009°08'4 8.3
2018-Jun-22 06:30N 38°39' W 009°05'4 8.4
2018-Jun-22 06:00N 38°42' W 009°08'4 8.4
2018-Jun-22 05:30N 38°39' W 009°05'4 7.5
2018-Jun-22 05:00N 38°42' W 009°08'4 0.6
2018-Jun-21 22:53N 38°39' W 009°05'411.1
2018-Jun-21 22:30N 38°42' W 009°08'4 8.3
2018-Jun-21 22:00N 38°39' W 009°05'4 8.4
2018-Jun-21 21:31N 38°42' W 009°08'4 8.3
2018-Jun-21 21:00N 38°39' W 009°05'3 6.5
2018-Jun-21 20:31N 38°41' W 009°08'3 6.5
2018-Jun-21 20:00N 38°39' W 009°05'0 0.0
2018-Jun-21 19:31N 38°39' W 009°05'4 8.3
2018-Jun-21 19:00N 38°42' W 009°08'4 8.4
2018-Jun-21 18:30N 38°39' W 009°05'4 8.4
2018-Jun-21 18:00N 38°42' W 009°08'4 8.3
2018-Jun-21 17:31N 38°39' W 009°05'4 7.9
2018-Jun-21 17:00N 38°42' W 009°08'2 4.8
2018-Jun-21 16:31N 38°40' W 009°07'1 2.3
2018-Jun-21 16:01N 38°41' W 009°07'3 5.5
2018-Jun-21 15:30N 38°39' W 009°05'0 0.0
2018-Jun-21 12:40N 38°39' W 009°05'0 0.0
2018-Jun-21 12:30N 38°39' W 009°05'0 0.0
2018-Jun-21 12:00N 38°39' W 009°05'0 0.0
2018-Jun-21 11:30N 38°39' W 009°05'0 0.0
2018-Jun-21 11:00N 38°39' W 009°05'0 0.0
2018-Jun-21 10:30N 38°39' W 009°05'3 6.6
2018-Jun-21 10:00N 38°41' W 009°08'3 6.4
2018-Jun-21 09:30N 38°39' W 009°05'0 0.7
2018-Jun-21 09:00N 38°39' W 009°05'2 4.3
2018-Jun-21 08:31N 38°40' W 009°07'1 2.1
2018-Jun-21 08:00N 38°40' W 009°06'3 6.4
2018-Jun-21 07:30N 38°42' W 009°08'4 8.3
2018-Jun-21 07:00N 38°39' W 009°05'4 7.8
2018-Jun-21 06:31N 38°42' W 009°08'4 7.8
2018-Jun-21 06:00N 38°39' W 009°05'0 0.0
2018-Jun-20 18:55N 38°39' W 009°05'410.0
2018-Jun-20 18:30N 38°42' W 009°08'4 8.4
2018-Jun-20 18:00N 38°39' W 009°05'4 7.5
2018-Jun-20 17:31N 38°42' W 009°08'2 4.6
2018-Jun-20 17:01N 38°40' W 009°07'1 1.1
2018-Jun-20 16:30N 38°40' W 009°06'3 6.3
2018-Jun-20 16:00N 38°42' W 009°08'4 8.3
2018-Jun-20 15:30N 38°39' W 009°05'3 6.5
2018-Jun-20 15:00N 38°41' W 009°08'2 4.9
2018-Jun-20 14:30N 38°39' W 009°06'1 1.7
2018-Jun-20 14:00N 38°39' W 009°05'0 0.0
2018-Jun-20 13:30N 38°39' W 009°05'0 0.0
2018-Jun-20 13:00N 38°39' W 009°05'0 0.0
2018-Jun-20 12:30N 38°39' W 009°05'0 0.0
2018-Jun-20 12:00N 38°39' W 009°05'0 0.0
2018-Jun-20 11:30N 38°39' W 009°05'0 0.0
2018-Jun-20 11:00N 38°39' W 009°05'0 0.0
2018-Jun-20 10:30N 38°39' W 009°05'0 0.0
2018-Jun-20 10:00N 38°39' W 009°05'0 0.0
2018-Jun-20 09:30N 38°39' W 009°05'4 7.0
2018-Jun-20 09:00N 38°41' W 009°08'3 5.8
2018-Jun-20 08:30N 38°39' W 009°06'1 2.4
2018-Jun-20 08:00N 38°40' W 009°07'0 0.9
2018-Jun-20 07:30N 38°40' W 009°06'3 5.9
2018-Jun-20 07:00N 38°42' W 009°08'4 8.3
2018-Jun-20 06:30N 38°39' W 009°05'4 8.3
2018-Jun-20 06:00N 38°42' W 009°08'4 8.4
2018-Jun-20 05:30N 38°39' W 009°05'4 7.2
2018-Jun-20 05:01N 38°42' W 009°08'4 7.2
2018-Jun-20 04:30N 38°39' W 009°05'0 0.0
2018-Jun-19 22:55N 38°39' W 009°05'410.2
2018-Jun-19 22:30N 38°42' W 009°08'4 8.3
2018-Jun-19 22:00N 38°39' W 009°05'4 8.3
2018-Jun-19 21:31N 38°42' W 009°08'4 8.3
2018-Jun-19 21:01N 38°39' W 009°05'3 6.7
2018-Jun-19 20:30N 38°41' W 009°08'3 6.7
2018-Jun-19 20:00N 38°39' W 009°05'0 0.0
2018-Jun-19 19:30N 38°39' W 009°05'4 8.3
2018-Jun-19 19:00N 38°42' W 009°08'4 8.4
2018-Jun-19 18:30N 38°39' W 009°05'4 8.4
2018-Jun-19 18:00N 38°42' W 009°08'4 8.3
2018-Jun-19 17:30N 38°39' W 009°05'4 7.5
2018-Jun-19 17:00N 38°42' W 009°08'2 4.3
2018-Jun-19 16:31N 38°40' W 009°07'0 0.1
2018-Jun-19 16:00N 38°40' W 009°07'2 4.1
2018-Jun-19 15:29N 38°39' W 009°05'0 0.0
2018-Jun-19 15:00N 38°39' W 009°05'0 0.0
2018-Jun-19 14:31N 38°39' W 009°05'0 0.0
2018-Jun-19 14:00N 38°39' W 009°05'0 0.0
2018-Jun-19 13:31N 38°39' W 009°05'0 0.0
2018-Jun-19 13:00N 38°39' W 009°05'0 0.0
2018-Jun-19 12:30N 38°39' W 009°05'0 0.0
2018-Jun-19 12:00N 38°39' W 009°05'0 0.0
2018-Jun-19 11:31N 38°39' W 009°05'0 0.0
2018-Jun-19 11:01N 38°39' W 009°05'0 0.0
2018-Jun-19 10:30N 38°39' W 009°05'0 0.0
2018-Jun-19 10:01N 38°39' W 009°05'0 0.2
2018-Jun-19 09:31N 38°39' W 009°05'3 6.3
2018-Jun-19 09:00N 38°41' W 009°08'3 5.4
2018-Jun-19 08:30N 38°39' W 009°06'1 1.9
2018-Jun-19 08:00N 38°40' W 009°07'1 1.1
2018-Jun-19 07:30N 38°40' W 009°06'3 6.5
2018-Jun-19 07:00N 38°42' W 009°08'4 8.3
2018-Jun-19 06:30N 38°39' W 009°05'4 8.3
2018-Jun-19 06:00N 38°42' W 009°08'4 8.3
2018-Jun-19 05:30N 38°39' W 009°05'3 6.9
2018-Jun-19 05:01N 38°42' W 009°08'3 6.9
2018-Jun-19 04:30N 38°39' W 009°05'0 0.0
2018-Jun-19 04:00N 38°39' W 009°05'0 0.0
2018-Jun-19 03:30N 38°39' W 009°05'0 0.0
2018-Jun-19 03:00N 38°39' W 009°05'0 0.0
2018-Jun-19 02:30N 38°39' W 009°05'0 0.0
2018-Jun-19 02:00N 38°39' W 009°05'0 0.0
2018-Jun-19 01:30N 38°39' W 009°05'0 0.0
2018-Jun-19 01:00N 38°39' W 009°05'0 0.0
2018-Jun-19 00:30N 38°39' W 009°05'0 0.0
2018-Jun-19 00:00N 38°39' W 009°05'0 0.0
2018-Jun-18 23:30N 38°39' W 009°05'0 0.0
2018-Jun-18 23:00N 38°39' W 009°05'4 8.4
2018-Jun-18 22:30N 38°42' W 009°08'4 8.3
2018-Jun-18 22:00N 38°39' W 009°05'4 8.3
2018-Jun-18 21:30N 38°42' W 009°08'4 8.4
2018-Jun-18 21:00N 38°39' W 009°05'3 6.7
2018-Jun-18 20:30N 38°41' W 009°08'3 6.6
2018-Jun-18 20:00N 38°39' W 009°05'0 0.0
2018-Jun-18 19:30N 38°39' W 009°05'4 8.2
2018-Jun-18 19:00N 38°42' W 009°08'4 8.4
2018-Jun-18 18:30N 38°39' W 009°05'4 8.4
2018-Jun-18 18:00N 38°42' W 009°08'4 8.3
2018-Jun-18 17:30N 38°39' W 009°05'4 7.2
2018-Jun-18 17:00N 38°42' W 009°08'2 3.9
2018-Jun-18 16:31N 38°40' W 009°07'1 1.2
2018-Jun-18 16:01N 38°41' W 009°07'2 4.8
2018-Jun-18 15:30N 38°39' W 009°05'0 0.0
2018-Jun-18 15:00N 38°39' W 009°05'0 0.0
2018-Jun-18 14:29N 38°39' W 009°05'0 0.0
2018-Jun-18 14:00N 38°39' W 009°05'0 0.0
2018-Jun-18 13:30N 38°39' W 009°05'0 0.0
2018-Jun-18 13:00N 38°39' W 009°05'0 0.0
2018-Jun-18 12:30N 38°39' W 009°05'0 0.0
2018-Jun-18 12:00N 38°39' W 009°05'0 0.0
2018-Jun-18 11:30N 38°39' W 009°05'0 0.0
2018-Jun-18 11:00N 38°39' W 009°05'0 0.0
2018-Jun-18 10:30N 38°39' W 009°05'0 0.0
2018-Jun-18 10:00N 38°39' W 009°05'0 0.0
2018-Jun-18 09:30N 38°39' W 009°05'0 0.0
2018-Jun-18 09:00N 38°39' W 009°05'0 0.2
2018-Jun-18 08:30N 38°39' W 009°05'3 6.4
2018-Jun-18 08:00N 38°41' W 009°08'3 6.5
2018-Jun-18 07:30N 38°39' W 009°05'4 8.3
2018-Jun-18 07:01N 38°42' W 009°08'4 8.2
2018-Jun-18 06:30N 38°39' W 009°05'3 6.6
2018-Jun-18 06:01N 38°41' W 009°08'3 6.3
2018-Jun-18 05:30N 38°39' W 009°05'0 0.0
2018-Jun-17 10:21N 38°39' W 009°05'3 9.6
2018-Jun-17 10:01N 38°41' W 009°08'3 5.4
2018-Jun-17 09:31N 38°39' W 009°06'3 5.8
2018-Jun-17 09:01N 38°42' W 009°08'3 6.2
2018-Jun-17 08:30N 38°39' W 009°05'3 6.0
2018-Jun-17 08:01N 38°41' W 009°08'3 5.1
2018-Jun-17 07:31N 38°39' W 009°06'3 5.2
2018-Jun-17 07:00N 38°41' W 009°08'3 5.2
2018-Jun-17 06:30N 38°39' W 009°06'0 0.6
2018-Jun-17 06:00N 38°39' W 009°05'2 3.0
2018-Jun-17 05:31N 38°40' W 009°07'1 1.8
2018-Jun-17 05:00N 38°40' W 009°06'2 3.2
2018-Jun-17 04:31N 38°41' W 009°08'3 5.4
2018-Jun-17 04:00N 38°39' W 009°05'0 0.0
2018-Jun-17 03:30N 38°39' W 009°05'0 0.0
2018-Jun-17 03:00N 38°39' W 009°05'0 0.0
2018-Jun-17 02:30N 38°39' W 009°05'0 0.0
2018-Jun-17 02:00N 38°39' W 009°05'0 0.0
2018-Jun-17 01:30N 38°39' W 009°05'4 8.4
2018-Jun-17 01:00N 38°42' W 009°08'4 8.3
2018-Jun-17 00:30N 38°39' W 009°05'4 8.3
2018-Jun-17 00:00N 38°42' W 009°08'4 8.3
2018-Jun-16 23:30N 38°39' W 009°05'4 8.3
2018-Jun-16 23:00N 38°42' W 009°08'4 8.4
2018-Jun-16 22:30N 38°39' W 009°05'3 6.3
2018-Jun-16 22:00N 38°41' W 009°08'2 4.5
2018-Jun-16 21:31N 38°39' W 009°06'2 4.5
2018-Jun-16 21:00N 38°41' W 009°08'2 4.5
2018-Jun-16 20:30N 38°39' W 009°06'3 5.1
2018-Jun-16 20:00N 38°41' W 009°08'3 5.2
2018-Jun-16 19:31N 38°39' W 009°06'1 1.9
2018-Jun-16 19:00N 38°39' W 009°05'3 6.6
2018-Jun-16 18:30N 38°41' W 009°08'2 4.3
2018-Jun-16 18:01N 38°40' W 009°06'2 4.5
2018-Jun-16 17:31N 38°42' W 009°08'2 4.6
2018-Jun-16 17:00N 38°40' W 009°06'2 4.5
2018-Jun-16 16:30N 38°41' W 009°08'2 4.8
2018-Jun-16 16:00N 38°39' W 009°06'2 4.7
2018-Jun-16 15:30N 38°41' W 009°08'3 5.2
2018-Jun-16 15:01N 38°39' W 009°06'3 5.4
2018-Jun-16 14:30N 38°41' W 009°08'3 5.2
2018-Jun-16 14:01N 38°39' W 009°06'1 1.6
2018-Jun-16 13:30N 38°39' W 009°05'0 0.0
2018-Jun-16 13:00N 38°39' W 009°05'0 0.0
2018-Jun-16 12:30N 38°39' W 009°05'3 7.0
2018-Jun-16 12:00N 38°42' W 009°08'3 5.9
2018-Jun-16 11:31N 38°39' W 009°06'3 5.2
2018-Jun-16 11:00N 38°41' W 009°08'3 5.4
2018-Jun-16 10:30N 38°39' W 009°05'3 5.8
2018-Jun-16 10:01N 38°42' W 009°08'3 6.0
2018-Jun-16 09:30N 38°39' W 009°05'3 6.0
2018-Jun-16 09:01N 38°41' W 009°08'3 5.6
2018-Jun-16 08:30N 38°39' W 009°06'3 5.5
2018-Jun-16 08:00N 38°41' W 009°08'3 5.2
2018-Jun-16 07:31N 38°39' W 009°06'3 5.4
2018-Jun-16 07:00N 38°42' W 009°08'3 5.3
2018-Jun-16 06:30N 38°39' W 009°06'0 0.2
2018-Jun-16 06:01N 38°39' W 009°06'1 1.6
2018-Jun-16 05:30N 38°40' W 009°07'1 1.5
2018-Jun-16 05:00N 38°39' W 009°06'2 4.8
2018-Jun-16 04:30N 38°41' W 009°08'3 6.1
2018-Jun-16 03:59N 38°39' W 009°05'0 0.0
2018-Jun-16 03:30N 38°39' W 009°05'0 0.0
2018-Jun-16 03:01N 38°39' W 009°05'0 0.0
2018-Jun-16 02:31N 38°39' W 009°05'0 0.0
2018-Jun-16 02:00N 38°39' W 009°05'0 0.0
2018-Jun-16 01:30N 38°39' W 009°05'4 8.5
2018-Jun-16 01:00N 38°42' W 009°08'4 8.4
2018-Jun-16 00:31N 38°39' W 009°05'4 8.3
2018-Jun-16 00:01N 38°42' W 009°08'4 8.3
2018-Jun-15 23:31N 38°39' W 009°05'4 8.3
2018-Jun-15 23:00N 38°42' W 009°08'4 8.3
2018-Jun-15 22:30N 38°39' W 009°05'3 5.9
2018-Jun-15 22:00N 38°41' W 009°08'2 4.0
2018-Jun-15 21:31N 38°39' W 009°06'2 4.6
2018-Jun-15 21:01N 38°41' W 009°08'3 4.9
2018-Jun-15 20:30N 38°39' W 009°06'1 1.7
2018-Jun-15 20:01N 38°39' W 009°05'0 0.0
2018-Jun-15 19:31N 38°39' W 009°05'4 8.2
2018-Jun-15 19:00N 38°42' W 009°08'4 8.4
2018-Jun-15 18:30N 38°39' W 009°05'4 8.2
2018-Jun-15 18:01N 38°42' W 009°08'2 4.9
2018-Jun-15 17:30N 38°40' W 009°07'1 1.4
2018-Jun-15 17:01N 38°40' W 009°06'3 6.1
2018-Jun-15 16:30N 38°42' W 009°08'4 8.3
2018-Jun-15 16:00N 38°39' W 009°05'0 0.0
2018-Jun-15 15:30N 38°39' W 009°05'0 0.3
2018-Jun-15 15:00N 38°39' W 009°05'0 0.0
2018-Jun-13 17:05N 38°39' W 009°05'0 0.0
2018-Jun-13 17:01N 38°39' W 009°05'3 6.7
2018-Jun-13 16:31N 38°42' W 009°08'3 5.7
2018-Jun-13 16:01N 38°39' W 009°06'3 5.2
2018-Jun-13 15:30N 38°41' W 009°08'2 4.6
2018-Jun-13 15:00N 38°40' W 009°06'2 4.6
2018-Jun-13 14:30N 38°41' W 009°08'2 4.4
2018-Jun-13 14:00N 38°40' W 009°06'1 2.2
2018-Jun-13 13:30N 38°39' W 009°05'0 0.0
2018-Jun-13 13:00N 38°39' W 009°05'0 0.0
2018-Jun-13 12:30N 38°39' W 009°05'3 6.5
2018-Jun-13 12:01N 38°41' W 009°08'3 5.4
2018-Jun-13 11:31N 38°39' W 009°06'3 5.0
2018-Jun-13 11:01N 38°41' W 009°08'3 5.3
2018-Jun-13 10:30N 38°39' W 009°05'1 1.0
2018-Jun-13 10:00N 38°39' W 009°05'0 0.0
2018-Jun-13 09:30N 38°39' W 009°05'0 0.0
2018-Jun-13 09:00N 38°39' W 009°05'0 0.1
2018-Jun-13 08:30N 38°39' W 009°05'0 0.0
2018-Jun-13 08:00N 38°39' W 009°05'0 0.0
2018-Jun-13 07:30N 38°39' W 009°05'0 0.0
2018-Jun-13 07:00N 38°39' W 009°05'0 0.7
2018-Jun-13 06:30N 38°39' W 009°05'2 4.2
2018-Jun-13 06:01N 38°40' W 009°07'1 2.8
2018-Jun-13 05:31N 38°40' W 009°06'3 5.6
2018-Jun-13 05:01N 38°42' W 009°08'4 7.4
2018-Jun-13 04:31N 38°39' W 009°05'0 0.0
2018-Jun-13 04:01N 38°39' W 009°05'0 0.0
2018-Jun-13 03:31N 38°39' W 009°05'0 1.0
2018-Jun-13 03:00N 38°39' W 009°05'4 7.7
2018-Jun-13 02:30N 38°42' W 009°08'0 0.0
2018-Jun-13 02:00N 38°42' W 009°08'0 0.0
2018-Jun-13 01:31N 38°42' W 009°08'2 5.0
2018-Jun-13 01:01N 38°40' W 009°07'2 4.9
2018-Jun-13 00:30N 38°42' W 009°08'0 0.0
2018-Jun-13 00:00N 38°42' W 009°08'0 0.3
2018-Jun-12 23:30N 38°42' W 009°08'4 7.9
2018-Jun-12 23:00N 38°39' W 009°05'4 8.4
2018-Jun-12 22:30N 38°42' W 009°08'4 8.3
2018-Jun-12 22:00N 38°39' W 009°05'4 8.3
2018-Jun-12 21:30N 38°42' W 009°08'4 8.4
2018-Jun-12 21:00N 38°39' W 009°05'3 6.8
2018-Jun-12 20:30N 38°41' W 009°08'3 6.8
2018-Jun-12 20:00N 38°39' W 009°05'4 8.3
2018-Jun-12 19:31N 38°42' W 009°08'4 8.3
2018-Jun-12 19:00N 38°39' W 009°05'  

Dump ship's entire track history